Time;durP1;ratioP1;P1;durP2;ratioP2;P2;SDS_P1;SDS_P2;PMS_P1;PMS_P2;Temp;Humidity;BMP_temperature;BMP_pressure;BME280_temperature;BME280_humidity;BME280_pressure;Samples;Min_cycle;Max_cycle;Signal;HPM_P1;HPM_P2
2022/09/19 00:02:34;;;;;;;4.45;2.40;;;8.40;99.90;;;;;;5312788;22;21177;-87
2022/09/19 00:05:01;;;;;;;2.20;2.00;;;8.30;99.90;;;;;;5045733;28;20196;-87
2022/09/19 00:07:28;;;;;;;2.70;2.20;;;8.20;99.90;;;;;;5724864;22;20225;-86
2022/09/19 00:12:41;;;;;;;3.03;2.20;;;8.20;99.90;;;;;;5105918;22;20240;-89
2022/09/19 00:15:09;;;;;;;2.78;2.58;;;8.10;99.90;;;;;;5088878;22;20229;-85
2022/09/19 00:17:38;;;;;;;2.42;2.22;;;8.10;99.90;;;;;;5035628;28;20201;-87
2022/09/19 00:33:39;;;;;;;6.45;2.40;;;8.10;99.90;;;;;;5572356;22;20271;-84
2022/09/19 00:36:08;;;;;;;2.78;2.53;;;8.00;99.90;;;;;;5065382;28;20203;-84
2022/09/19 00:38:35;;;;;;;2.25;2.05;;;8.10;99.90;;;;;;5058977;28;20222;-85
2022/09/19 00:41:03;;;;;;;2.30;2.10;;;8.20;99.90;;;;;;5059288;28;20207;-84
2022/09/19 00:43:56;;;;;;;2.80;2.60;;;8.30;99.90;;;;;;5061271;28;20191;-85
2022/09/19 00:46:25;;;;;;;2.58;2.35;;;8.40;99.90;;;;;;5051045;28;20207;-83
2022/09/19 00:49:07;;;;;;;3.20;2.85;;;8.30;99.90;;;;;;5065395;28;20196;-84
2022/09/19 00:56:58;;;;;;;4.90;3.00;;;8.20;99.90;;;;;;5056828;28;20184;-84
2022/09/19 00:59:31;;;;;;;4.63;3.00;;;8.10;99.90;;;;;;5516122;22;20215;-82
2022/09/19 01:02:04;;;;;;;4.20;3.03;;;8.10;99.90;;;;;;5302064;22;20223;-88
2022/09/19 01:04:35;;;;;;;3.65;3.35;;;8.10;99.90;;;;;;5161320;22;20220;-89
2022/09/19 01:12:47;;;;;;;9.23;4.53;;;8.50;99.90;;;;;;5562626;22;20283;-88
2022/09/19 01:15:42;;;;;;;5.45;3.75;;;8.50;99.90;;;;;;5355741;22;20225;-88
2022/09/19 01:31:39;;;;;;;4.32;3.30;;;8.90;99.90;;;;;;5085555;28;20199;-86
2022/09/19 01:34:16;;;;;;;6.32;3.22;;;8.90;99.90;;;;;;5089523;28;20184;-85
2022/09/19 01:39:29;;;;;;;4.05;3.13;;;8.60;99.90;;;;;;5869655;23;20478;-88
2022/09/19 01:42:03;;;;;;;4.57;3.00;;;8.70;99.90;;;;;;5561894;22;20236;-86
2022/09/19 01:44:31;;;;;;;3.50;2.80;;;8.60;99.90;;;;;;5065883;28;20195;-87
2022/09/19 01:47:22;;;;;;;2.63;2.42;;;8.50;99.90;;;;;;5319779;22;20235;-89
2022/09/19 01:50:05;;;;;;;3.03;2.30;;;8.40;99.90;;;;;;5054867;28;20227;-88
2022/09/19 01:53:01;;;;;;;2.95;2.08;;;8.40;99.90;;;;;;5039605;28;20189;-90
2022/09/19 01:55:49;;;;;;;3.05;2.85;;;8.40;99.90;;;;;;5176723;22;20295;-90
2022/09/19 01:58:46;;;;;;;3.78;3.47;;;8.40;99.90;;;;;;5058863;28;20183;-90
2022/09/19 02:02:03;;;;;;;3.28;2.97;;;8.40;99.90;;;;;;5029962;28;20894;-91
2022/09/19 02:04:40;;;;;;;3.15;2.95;;;8.50;99.90;;;;;;4967076;28;20205;-89
2022/09/19 02:07:22;;;;;;;2.92;2.72;;;8.30;99.90;;;;;;5039295;28;20258;-89
2022/09/19 02:09:53;;;;;;;3.65;3.17;;;8.10;99.90;;;;;;5045903;28;20184;-89
2022/09/19 02:12:22;;;;;;;3.67;2.70;;;8.20;99.90;;;;;;5060758;28;20219;-86
2022/09/19 02:20:10;;;;;;;3.45;3.15;;;8.10;99.90;;;;;;5401370;22;20508;-85
2022/09/19 02:22:47;;;;;;;3.20;3.00;;;8.20;99.90;;;;;;5055637;28;20200;-85
2022/09/19 02:28:03;;;;;;;5.07;4.18;;;8.40;99.90;;;;;;5768334;22;20248;-84
2022/09/19 02:41:28;;;;;;;4.18;3.80;;;9.00;99.90;;;;;;5342118;22;20196;-85
2022/09/19 02:49:51;;;;;;;4.85;4.38;;;9.00;99.90;;;;;;5696632;22;20217;-85
2022/09/19 03:16:47;;;;;;;9.43;6.38;;;9.00;99.90;;;;;;6162672;23;20193;-86
2022/09/19 03:21:52;;;;;;;5.22;4.75;;;9.00;99.90;;;;;;6145120;23;20200;-90
2022/09/19 03:24:20;;;;;;;8.05;4.43;;;8.90;99.90;;;;;;6176135;23;20258;-87
2022/09/19 03:26:48;;;;;;;5.97;4.85;;;9.00;99.90;;;;;;6134158;22;20200;-84
2022/09/19 03:29:16;;;;;;;8.75;5.50;;;9.00;99.90;;;;;;6177034;23;20219;-84
2022/09/19 03:31:44;;;;;;;6.03;4.80;;;8.60;99.90;;;;;;6156151;22;20191;-83
2022/09/19 03:34:17;;;;;;;6.32;5.35;;;8.70;99.90;;;;;;6184829;22;20170;-83
2022/09/19 03:44:45;;;;;;;5.15;4.75;;;8.50;99.90;;;;;;6140980;23;20285;-85
2022/09/19 03:47:14;;;;;;;5.50;4.57;;;8.30;99.90;;;;;;6177938;23;20192;-85
2022/09/19 03:49:41;;;;;;;7.35;4.50;;;8.30;99.90;;;;;;6155203;23;20217;-88
2022/09/19 03:52:11;;;;;;;3.53;3.17;;;8.30;99.90;;;;;;6155119;23;20169;-85
2022/09/19 03:57:14;;;;;;;3.40;2.92;;;8.40;99.90;;;;;;6165239;23;20198;-90
2022/09/19 03:59:42;;;;;;;3.85;2.90;;;8.30;99.90;;;;;;6174923;23;20173;-91
2022/09/19 04:02:10;;;;;;;2.90;2.65;;;8.30;99.90;;;;;;6172539;23;20193;-87
2022/09/19 04:04:38;;;;;;;4.10;3.45;;;8.40;99.90;;;;;;6172097;23;20188;-85
2022/09/19 04:07:06;;;;;;;3.15;2.95;;;8.40;99.90;;;;;;6152896;22;20193;-87
2022/09/19 04:09:34;;;;;;;2.67;2.45;;;8.60;99.90;;;;;;6146027;23;20194;-88
2022/09/19 04:12:03;;;;;;;2.47;1.80;;;8.60;99.90;;;;;;6173934;23;20177;-88
2022/09/19 04:14:34;;;;;;;2.00;1.90;;;8.50;99.90;;;;;;6161477;23;20221;-88
2022/09/19 04:17:01;;;;;;;4.22;2.35;;;8.60;99.90;;;;;;6156070;23;20217;-84
2022/09/19 04:19:52;;;;;;;2.90;2.60;;;8.70;99.90;;;;;;6165374;23;20169;-89
2022/09/19 04:27:37;;;;;;;4.35;1.80;;;9.00;99.90;;;;;;6106810;23;20204;-81
2022/09/19 04:30:07;;;;;;;3.92;3.20;;;9.30;99.90;;;;;;6175309;23;20180;-85
2022/09/19 04:32:34;;;;;;;4.45;2.00;;;9.50;99.90;;;;;;6160578;23;20228;-84
2022/09/19 04:35:01;;;;;;;2.95;2.00;;;9.40;99.90;;;;;;6123784;22;20214;-87
2022/09/19 04:37:32;;;;;;;2.15;1.70;;;9.40;99.90;;;;;;6172773;22;20333;-85
2022/09/19 04:39:59;;;;;;;1.80;1.70;;;9.40;99.90;;;;;;6176021;22;20210;-85
2022/09/19 04:42:25;;;;;;;2.05;1.70;;;9.60;99.90;;;;;;6177664;22;20224;-87
2022/09/19 04:47:31;;;;;;;4.15;1.90;;;9.60;99.90;;;;;;6158825;23;20204;-84
2022/09/19 04:50:00;;;;;;;2.20;1.98;;;9.50;99.90;;;;;;6139015;23;20365;-84
2022/09/19 04:52:30;;;;;;;1.67;1.58;;;9.20;99.90;;;;;;6139502;23;20233;-88
2022/09/19 04:54:58;;;;;;;3.03;2.65;;;9.30;99.90;;;;;;6139306;23;20193;-85
2022/09/19 04:57:26;;;;;;;3.17;2.35;;;9.40;99.90;;;;;;6158429;23;20433;-86
2022/09/19 04:59:55;;;;;;;2.05;1.90;;;9.40;99.90;;;;;;6157824;23;20190;-89
2022/09/19 05:02:30;;;;;;;3.47;2.30;;;9.60;99.90;;;;;;6155797;23;20210;-86
2022/09/19 05:04:59;;;;;;;2.97;2.25;;;9.70;99.90;;;;;;6131943;23;20240;-87
2022/09/19 05:07:31;;;;;;;1.42;1.33;;;9.80;99.90;;;;;;6130646;23;20520;-87
2022/09/19 05:09:59;;;;;;;2.13;1.92;;;9.70;99.90;;;;;;6130543;23;20199;-88
2022/09/19 05:12:30;;;;;;;6.15;2.97;;;9.80;99.90;;;;;;6136924;23;20220;-85
2022/09/19 05:14:57;;;;;;;4.80;3.40;;;9.80;99.90;;;;;;6158081;23;20163;-84
2022/09/19 05:17:25;;;;;;;2.58;2.38;;;9.90;99.90;;;;;;6129101;23;20183;-83
2022/09/19 05:19:52;;;;;;;2.05;1.55;;;9.80;99.90;;;;;;6156082;22;20236;-85
2022/09/19 05:22:21;;;;;;;2.95;2.05;;;9.70;99.90;;;;;;6156584;23;20211;-87
2022/09/19 05:24:52;;;;;;;3.22;1.65;;;9.60;99.90;;;;;;6155033;23;20182;-85
2022/09/19 05:27:19;;;;;;;2.28;1.70;;;9.70;99.90;;;;;;6154589;23;20215;-88
2022/09/19 05:29:52;;;;;;;2.65;1.90;;;9.70;99.90;;;;;;6132251;23;20405;-85
2022/09/19 05:32:21;;;;;;;4.85;2.83;;;9.50;99.90;;;;;;6156531;23;20492;-86
2022/09/19 05:34:49;;;;;;;2.28;1.98;;;9.80;99.90;;;;;;6131556;23;20358;-84
2022/09/19 05:37:16;;;;;;;2.55;2.10;;;9.70;99.90;;;;;;6156856;23;20197;-87
2022/09/19 05:39:48;;;;;;;3.45;3.00;;;9.80;99.90;;;;;;6157969;22;20179;-89
2022/09/19 05:42:16;;;;;;;2.35;2.15;;;9.70;99.90;;;;;;6156437;23;20280;-86
2022/09/19 05:44:43;;;;;;;3.53;2.80;;;9.60;99.90;;;;;;6158978;23;20194;-86
2022/09/19 05:47:11;;;;;;;2.60;2.40;;;9.90;99.90;;;;;;6158667;23;20191;-86
2022/09/19 05:49:40;;;;;;;2.10;2.00;;;10.00;99.90;;;;;;6157647;22;20231;-85
2022/09/19 05:54:56;;;;;;;4.70;2.28;;;10.10;99.90;;;;;;6158025;23;20183;-85
2022/09/19 05:57:25;;;;;;;2.55;1.80;;;10.10;99.90;;;;;;6159666;23;20538;-85
2022/09/19 05:59:56;;;;;;;4.50;2.50;;;10.10;99.90;;;;;;6128654;23;20179;-86
2022/09/19 06:02:23;;;;;;;2.60;1.98;;;10.20;99.90;;;;;;6157959;23;20206;-85
2022/09/19 06:04:53;;;;;;;2.40;2.20;;;10.20;99.90;;;;;;6158476;23;20253;-86
2022/09/19 06:07:23;;;;;;;3.40;2.45;;;10.20;99.90;;;;;;6131025;23;20209;-86
2022/09/19 06:09:56;;;;;;;2.85;2.60;;;10.20;99.90;;;;;;6172024;23;20159;-85
2022/09/19 06:12:28;;;;;;;2.50;2.10;;;10.50;99.90;;;;;;6148992;23;20176;-86
2022/09/19 06:14:57;;;;;;;2.58;2.35;;;10.60;99.90;;;;;;6172599;23;20161;-86
2022/09/19 06:17:24;;;;;;;3.03;1.80;;;10.50;99.90;;;;;;6173592;23;20166;-85
2022/09/19 06:19:52;;;;;;;3.25;2.05;;;10.50;99.90;;;;;;6172614;23;20191;-82
2022/09/19 06:22:20;;;;;;;5.13;2.42;;;10.50;99.90;;;;;;6165466;23;20207;-86
2022/09/19 06:24:47;;;;;;;5.25;2.25;;;10.60;99.90;;;;;;6130093;23;20320;-84
2022/09/19 06:27:16;;;;;;;2.20;2.00;;;10.60;99.90;;;;;;6129292;23;20186;-85
2022/09/19 06:29:43;;;;;;;7.65;2.50;;;10.70;99.90;;;;;;6154344;23;20264;-86
2022/09/19 06:32:11;;;;;;;6.13;2.63;;;10.90;99.90;;;;;;6153630;23;20841;-84
2022/09/19 06:34:38;;;;;;;5.05;2.17;;;11.00;99.90;;;;;;6153390;23;20192;-85
2022/09/19 06:37:23;;;;;;;2.67;2.47;;;10.80;99.90;;;;;;6152821;23;20240;-87
2022/09/19 06:39:51;;;;;;;2.85;2.22;;;10.80;99.90;;;;;;6154455;23;20179;-84
2022/09/19 06:42:21;;;;;;;2.88;2.58;;;10.90;99.90;;;;;;6154635;23;20196;-86
2022/09/19 06:44:54;;;;;;;4.70;2.60;;;11.00;99.90;;;;;;6155737;23;20172;-87
2022/09/19 06:47:21;;;;;;;2.92;2.45;;;11.00;99.90;;;;;;6156462;22;20253;-86
2022/09/19 06:49:49;;;;;;;4.35;2.70;;;11.00;99.90;;;;;;6159559;23;20191;-88
2022/09/19 06:52:16;;;;;;;2.35;2.00;;;11.10;99.90;;;;;;6158593;23;20288;-87
2022/09/19 06:54:44;;;;;;;3.40;3.10;;;11.00;99.90;;;;;;6168495;23;20188;-85
2022/09/19 06:57:11;;;;;;;2.70;2.05;;;10.90;99.90;;;;;;6168193;23;20184;-84
2022/09/19 06:59:39;;;;;;;3.28;2.90;;;10.80;99.90;;;;;;6144088;23;20199;-86
2022/09/19 07:02:07;;;;;;;3.22;2.85;;;10.80;99.90;;;;;;6165457;23;20242;-86
2022/09/19 07:04:35;;;;;;;2.97;2.75;;;10.80;99.90;;;;;;6164810;22;20190;-88
2022/09/19 07:07:03;;;;;;;4.22;3.13;;;11.00;99.90;;;;;;6156419;23;20408;-86
2022/09/19 07:09:31;;;;;;;3.28;2.92;;;11.30;99.90;;;;;;6154924;23;20196;-87
2022/09/19 07:12:01;;;;;;;3.40;3.05;;;11.20;99.90;;;;;;6131306;23;20184;-83
2022/09/19 07:14:30;;;;;;;6.20;3.17;;;11.10;99.90;;;;;;6128666;23;20168;-85
2022/09/19 07:16:57;;;;;;;3.10;2.72;;;10.90;99.90;;;;;;6128847;23;20210;-82
2022/09/19 07:19:24;;;;;;;2.72;2.25;;;11.00;99.90;;;;;;6157074;23;20386;-88
2022/09/19 07:21:53;;;;;;;2.72;2.53;;;11.10;99.90;;;;;;6154562;23;20267;-85
2022/09/19 07:24:21;;;;;;;5.68;2.40;;;11.20;99.90;;;;;;6155241;22;20505;-83
2022/09/19 07:26:48;;;;;;;3.33;3.00;;;11.40;99.90;;;;;;6128013;23;20193;-83
2022/09/19 07:29:15;;;;;;;3.13;2.83;;;11.40;99.90;;;;;;6153558;23;20406;-80
2022/09/19 07:31:42;;;;;;;4.05;2.60;;;11.50;99.90;;;;;;6154858;23;20180;-84
2022/09/19 07:34:11;;;;;;;3.17;2.92;;;11.50;99.90;;;;;;6154206;23;20189;-82
2022/09/19 07:36:37;;;;;;;1.90;1.80;;;11.70;99.90;;;;;;6155286;23;20231;-87
2022/09/19 07:39:04;;;;;;;3.42;2.20;;;11.90;99.90;;;;;;6155665;23;20189;-86
2022/09/19 07:41:31;;;;;;;2.00;1.80;;;12.40;99.90;;;;;;6129946;23;20231;-91
2022/09/19 07:43:58;;;;;;;3.25;2.30;;;12.70;99.90;;;;;;6155544;23;20205;-83
2022/09/19 07:46:26;;;;;;;3.92;2.85;;;12.90;99.90;;;;;;6156059;23;20219;-87
2022/09/19 07:48:54;;;;;;;2.33;2.03;;;13.20;99.90;;;;;;6129909;23;20248;-84
2022/09/19 07:51:22;;;;;;;5.45;2.90;;;13.30;99.90;;;;;;6155957;23;20246;-84
2022/09/19 07:53:51;;;;;;;3.20;2.53;;;13.10;99.90;;;;;;6158370;23;20181;-85
2022/09/19 07:56:18;;;;;;;3.13;2.92;;;12.90;99.90;;;;;;6158747;23;20537;-85
2022/09/19 07:58:50;;;;;;;4.30;1.48;;;12.60;99.90;;;;;;6133669;23;20183;-89
2022/09/19 08:01:17;;;;;;;2.15;1.85;;;12.50;99.90;;;;;;6158679;23;20601;-82
2022/09/19 08:03:46;;;;;;;6.20;2.42;;;12.60;99.90;;;;;;6157698;23;20220;-84
2022/09/19 08:06:13;;;;;;;4.95;2.25;;;12.60;99.90;;;;;;6156098;22;20177;-89
2022/09/19 08:08:40;;;;;;;3.17;2.20;;;12.60;99.90;;;;;;6155621;23;20810;-85
2022/09/19 08:11:07;;;;;;;11.00;4.75;;;12.70;99.90;;;;;;6155312;23;20495;-83
2022/09/19 08:13:34;;;;;;;2.83;2.22;;;12.70;99.90;;;;;;6133646;23;20181;-84
2022/09/19 08:16:03;;;;;;;2.03;1.70;;;12.70;99.90;;;;;;6158756;23;20192;-85
2022/09/19 08:18:31;;;;;;;2.88;2.28;;;12.60;99.90;;;;;;6160034;23;20491;-88
2022/09/19 08:20:57;;;;;;;2.85;2.25;;;12.30;99.90;;;;;;6161013;23;20200;-82
2022/09/19 08:23:26;;;;;;;2.10;1.83;;;12.00;99.90;;;;;;6171811;23;20204;-82
2022/09/19 08:25:55;;;;;;;2.85;2.60;;;11.70;99.90;;;;;;6173938;23;20215;-83
2022/09/19 08:28:22;;;;;;;1.88;1.63;;;11.50;99.90;;;;;;6165919;23;20181;-85
2022/09/19 08:30:49;;;;;;;2.00;1.77;;;11.70;99.90;;;;;;6158537;22;20238;-87
2022/09/19 08:33:18;;;;;;;4.00;2.22;;;11.80;99.90;;;;;;6164232;23;20173;-83
2022/09/19 08:35:45;;;;;;;2.92;2.65;;;12.00;99.90;;;;;;6162123;23;20188;-88
2022/09/19 08:38:13;;;;;;;2.28;2.08;;;12.00;99.90;;;;;;6158659;23;20258;-88
2022/09/19 08:40:46;;;;;;;2.65;2.45;;;12.10;99.90;;;;;;6159967;23;20235;-90
2022/09/19 08:43:33;;;;;;;3.88;2.10;;;12.10;99.90;;;;;;6157312;23;20275;-89
2022/09/19 08:46:21;;;;;;;3.63;1.67;;;12.30;99.90;;;;;;6132013;23;20468;-87
2022/09/19 08:49:05;;;;;;;1.95;1.65;;;12.30;99.90;;;;;;6158418;22;20207;-89
2022/09/19 08:51:51;;;;;;;5.88;1.65;;;12.70;99.90;;;;;;6158921;23;20179;-87
2022/09/19 08:54:36;;;;;;;1.80;1.70;;;14.00;99.90;;;;;;6159239;22;20468;-87
2022/09/19 08:57:13;;;;;;;1.38;1.27;;;15.40;99.90;;;;;;6158327;23;20186;-85
2022/09/19 08:59:43;;;;;;;3.85;1.58;;;16.90;99.90;;;;;;6157333;23;20226;-87
2022/09/19 09:02:38;;;;;;;3.53;1.20;;;18.60;99.90;;;;;;6158118;23;20174;-86
2022/09/19 09:05:37;;;;;;;1.93;1.60;;;18.70;99.90;;;;;;6155595;23;20377;-84
2022/09/19 09:08:24;;;;;;;1.53;1.43;;;17.40;99.90;;;;;;6157540;23;20404;-88
2022/09/19 09:10:59;;;;;;;2.03;1.83;;;16.60;99.90;;;;;;6156890;23;20402;-86
2022/09/19 09:13:38;;;;;;;3.27;1.63;;;16.10;99.90;;;;;;6157785;23;20412;-86
2022/09/19 09:16:47;;;;;;;2.35;1.77;;;15.30;99.90;;;;;;6157189;23;20388;-87
2022/09/19 09:19:40;;;;;;;2.05;1.58;;;14.50;99.90;;;;;;6159194;23;20170;-88
2022/09/19 09:22:32;;;;;;;8.73;2.97;;;14.10;99.90;;;;;;6158500;23;20161;-87
2022/09/19 09:25:10;;;;;;;2.72;2.05;;;14.40;99.90;;;;;;6160418;23;20176;-86
2022/09/19 09:27:50;;;;;;;3.47;2.15;;;14.80;99.90;;;;;;6130683;23;20188;-89
2022/09/19 09:30:19;;;;;;;1.58;1.33;;;14.50;99.90;;;;;;6157133;22;20207;-88
2022/09/19 09:32:57;;;;;;;2.28;1.42;;;14.10;99.90;;;;;;6132663;23;20242;-88
2022/09/19 09:35:37;;;;;;;3.10;1.45;;;13.70;99.90;;;;;;6159223;23;20288;-85
2022/09/19 09:38:33;;;;;;;5.80;1.80;;;13.70;99.90;;;;;;6132166;23;20193;-85
2022/09/19 09:44:03;;;;;;;2.70;1.55;;;13.70;99.90;;;;;;6156776;23;20193;-87
2022/09/19 09:46:58;;;;;;;4.68;1.45;;;13.70;99.90;;;;;;6106706;23;20193;-85
2022/09/19 09:49:29;;;;;;;4.05;1.65;;;14.00;99.90;;;;;;6131128;23;20165;-86
2022/09/19 09:52:20;;;;;;;2.05;1.75;;;14.00;99.90;;;;;;6155955;23;20185;-84
2022/09/19 09:58:58;;;;;;;10.43;2.38;;;13.80;99.90;;;;;;6037985;23;20171;-84
2022/09/19 10:04:34;;;;;;;2.45;2.03;;;13.70;99.90;;;;;;6158351;23;20187;-85
2022/09/19 10:07:12;;;;;;;2.72;1.85;;;13.90;99.90;;;;;;6158904;23;20223;-86
2022/09/19 10:09:52;;;;;;;2.22;2.03;;;14.20;99.90;;;;;;6158171;23;20173;-84
2022/09/19 10:12:32;;;;;;;4.05;2.25;;;14.30;99.90;;;;;;6156309;23;20500;-85
2022/09/19 10:15:22;;;;;;;3.75;2.78;;;14.10;99.90;;;;;;6158729;23;20181;-85
2022/09/19 10:18:05;;;;;;;3.28;2.10;;;14.00;99.90;;;;;;6132077;23;20181;-88
2022/09/19 10:20:49;;;;;;;2.88;2.53;;;13.90;99.90;;;;;;6155942;22;20224;-83
2022/09/19 10:23:32;;;;;;;4.97;3.40;;;13.60;99.90;;;;;;6153861;23;20203;-86
2022/09/19 10:26:04;;;;;;;6.93;3.00;;;13.20;99.90;;;;;;6154812;23;20173;-88
2022/09/19 10:28:37;;;;;;;5.75;3.38;;;13.10;99.90;;;;;;6153823;23;20242;-89
2022/09/19 10:31:05;;;;;;;8.00;3.70;;;13.00;99.90;;;;;;6158501;23;20222;-86
2022/09/19 10:33:44;;;;;;;5.38;3.50;;;13.10;99.90;;;;;;6158845;22;20211;-86
2022/09/19 10:36:32;;;;;;;7.88;4.13;;;13.30;99.90;;;;;;6130690;23;20230;-84
2022/09/19 10:39:17;;;;;;;2.63;2.42;;;13.20;99.90;;;;;;6156353;23;20225;-85
2022/09/19 10:41:46;;;;;;;3.40;2.63;;;13.20;99.90;;;;;;6156345;23;20481;-89
2022/09/19 10:44:24;;;;;;;3.45;2.55;;;13.30;99.90;;;;;;6130032;23;20231;-83
2022/09/19 10:47:03;;;;;;;3.13;2.92;;;13.30;99.90;;;;;;6154763;23;20203;-88
2022/09/19 10:49:44;;;;;;;4.95;2.45;;;13.30;99.90;;;;;;6155112;23;20226;-87
2022/09/19 10:52:23;;;;;;;5.10;2.58;;;13.50;99.90;;;;;;6155587;22;20279;-88
2022/09/19 10:55:20;;;;;;;3.35;2.65;;;13.50;99.90;;;;;;6157388;23;20192;-85
2022/09/19 10:58:01;;;;;;;5.85;3.47;;;13.50;99.90;;;;;;6157236;23;20227;-86
2022/09/19 11:00:49;;;;;;;4.35;3.15;;;13.50;99.90;;;;;;6155551;23;20308;-82
2022/09/19 11:03:47;;;;;;;2.55;2.35;;;13.20;99.90;;;;;;6167097;23;20230;-83
2022/09/19 11:06:16;;;;;;;5.25;2.78;;;12.90;99.90;;;;;;6166611;23;20173;-84
2022/09/19 11:08:45;;;;;;;3.85;3.20;;;12.90;99.90;;;;;;6136377;23;20177;-84
2022/09/19 11:11:37;;;;;;;3.80;3.47;;;13.00;99.90;;;;;;6155545;23;20177;-89
2022/09/19 11:14:17;;;;;;;3.38;3.17;;;13.20;99.90;;;;;;6129438;23;20181;-84
2022/09/19 11:17:03;;;;;;;5.25;4.00;;;13.40;99.90;;;;;;6151743;23;20188;-85
2022/09/19 11:19:48;;;;;;;4.20;3.20;;;13.80;99.90;;;;;;6152192;23;20173;-84
2022/09/19 11:22:55;;;;;;;3.95;3.58;;;14.00;99.90;;;;;;6151478;22;20464;-85
2022/09/19 11:25:35;;;;;;;5.22;2.45;;;14.10;99.90;;;;;;6126609;23;20173;-87
2022/09/19 11:28:25;;;;;;;3.20;2.55;;;14.10;99.90;;;;;;6152423;23;20161;-83
2022/09/19 11:30:58;;;;;;;3.92;2.38;;;14.10;99.90;;;;;;6153297;23;20192;-86
2022/09/19 11:33:45;;;;;;;2.53;2.35;;;13.90;99.90;;;;;;6154311;22;20207;-85
2022/09/19 11:37:05;;;;;;;2.95;2.63;;;13.70;99.90;;;;;;6159966;23;20196;-81
2022/09/19 11:39:52;;;;;;;2.17;2.00;;;13.50;99.90;;;;;;6162390;23;20184;-82
2022/09/19 11:42:35;;;;;;;3.15;2.92;;;13.70;99.90;;;;;;6135136;23;20395;-85
2022/09/19 11:45:19;;;;;;;2.47;2.28;;;13.90;99.90;;;;;;6155794;23;20201;-83
2022/09/19 11:47:57;;;;;;;2.30;2.00;;;14.00;99.90;;;;;;6153495;23;20185;-81
2022/09/19 11:50:46;;;;;;;2.33;2.13;;;13.70;99.90;;;;;;6152778;23;20245;-83
2022/09/19 11:53:56;;;;;;;2.15;1.95;;;13.60;99.90;;;;;;6152352;23;20177;-84
2022/09/19 11:56:42;;;;;;;4.18;2.05;;;13.60;99.90;;;;;;6152632;23;20500;-84
2022/09/19 11:59:39;;;;;;;3.45;2.50;;;13.60;99.90;;;;;;6153228;23;20170;-85
2022/09/19 12:02:49;;;;;;;2.75;2.00;;;13.90;99.90;;;;;;6154025;23;20169;-85
2022/09/19 12:05:31;;;;;;;4.80;3.22;;;13.90;99.90;;;;;;6157829;23;20182;-82
2022/09/19 12:08:19;;;;;;;1.70;1.60;;;13.80;99.90;;;;;;6170329;22;20177;-82
2022/09/19 12:10:54;;;;;;;6.47;1.85;;;13.50;99.90;;;;;;6167927;23;20195;-81
2022/09/19 12:13:23;;;;;;;1.40;1.20;;;13.10;99.90;;;;;;6167783;22;20162;-86
2022/09/19 12:16:04;;;;;;;2.47;1.80;;;12.70;99.90;;;;;;6135746;23;20212;-85
2022/09/19 12:18:55;;;;;;;3.08;2.25;;;12.50;99.90;;;;;;6154946;23;20362;-85
2022/09/19 12:21:29;;;;;;;1.90;1.70;;;12.60;99.90;;;;;;6155404;23;20227;-80
2022/09/19 12:27:04;;;;;;;2.25;1.85;;;12.70;99.90;;;;;;6153946;23;20161;-83
2022/09/19 12:29:39;;;;;;;2.30;1.65;;;13.10;99.90;;;;;;6152878;23;20169;-84
2022/09/19 12:32:30;;;;;;;2.38;2.17;;;13.40;99.90;;;;;;6152996;23;20188;-79
2022/09/19 12:35:18;;;;;;;5.53;4.32;;;13.80;99.90;;;;;;6152626;23;20297;-85
2022/09/19 12:38:11;;;;;;;7.03;5.68;;;14.40;99.90;;;;;;6153687;23;20174;-84
2022/09/19 12:40:49;;;;;;;2.40;2.20;;;14.50;99.90;;;;;;6127040;23;20166;-84
2022/09/19 12:43:50;;;;;;;2.13;1.92;;;14.60;99.90;;;;;;6157439;22;20182;-84
2022/09/19 12:46:55;;;;;;;2.10;1.92;;;14.70;99.90;;;;;;6131642;23;20220;-81
2022/09/19 12:49:51;;;;;;;1.70;1.60;;;14.40;99.90;;;;;;6128519;23;20242;-84
2022/09/19 12:52:34;;;;;;;2.60;2.40;;;14.30;99.90;;;;;;6158180;22;20494;-85
2022/09/19 12:55:27;;;;;;;4.47;4.18;;;14.70;99.90;;;;;;6128040;23;20174;-86
2022/09/19 12:58:05;;;;;;;2.53;2.33;;;15.00;99.90;;;;;;6156601;23;20174;-86
2022/09/19 13:00:37;;;;;;;4.30;3.90;;;14.90;99.90;;;;;;6158784;23;20244;-86
2022/09/19 13:03:18;;;;;;;2.45;2.25;;;14.90;99.90;;;;;;6155673;23;20188;-85
2022/09/19 13:05:46;;;;;;;2.67;2.42;;;14.90;99.90;;;;;;6155660;23;20226;-85
2022/09/19 13:08:43;;;;;;;3.58;3.28;;;14.80;99.90;;;;;;6128416;23;20243;-85
2022/09/19 13:11:36;;;;;;;3.55;2.30;;;14.40;99.90;;;;;;6155099;23;20315;-86
2022/09/19 13:14:17;;;;;;;3.22;2.70;;;14.00;99.90;;;;;;6156533;23;20209;-87
2022/09/19 13:25:20;;;;;;;1.83;1.73;;;13.40;99.90;;;;;;6160392;23;20252;-85
2022/09/19 13:28:19;;;;;;;3.25;2.30;;;13.30;99.90;;;;;;6158692;23;20169;-87
2022/09/19 13:30:58;;;;;;;2.40;2.20;;;13.30;99.90;;;;;;6155622;22;20195;-84
2022/09/19 13:33:49;;;;;;;2.33;2.13;;;13.50;99.90;;;;;;6158236;22;20184;-87
2022/09/19 13:36:37;;;;;;;2.35;1.95;;;13.70;99.90;;;;;;6156663;23;20484;-85
2022/09/19 13:39:24;;;;;;;5.30;2.20;;;13.80;99.90;;;;;;6134963;23;20181;-84
2022/09/19 13:41:54;;;;;;;3.53;2.47;;;13.80;99.90;;;;;;6134584;23;20665;-84
2022/09/19 13:44:39;;;;;;;18.05;2.65;;;13.80;99.90;;;;;;6138916;23;20362;-85
2022/09/19 13:47:24;;;;;;;2.20;1.70;;;13.70;99.90;;;;;;6163176;23;20283;-85
2022/09/19 13:50:14;;;;;;;4.43;1.92;;;13.70;99.90;;;;;;6111011;23;20200;-86
2022/09/19 13:52:49;;;;;;;2.75;1.98;;;13.70;99.90;;;;;;6162269;23;20219;-86
2022/09/19 13:55:30;;;;;;;2.63;1.67;;;13.80;99.90;;;;;;6159162;23;20173;-86
2022/09/19 13:58:27;;;;;;;2.78;1.73;;;13.80;99.90;;;;;;6161911;23;20169;-83
2022/09/19 14:01:21;;;;;;;2.15;1.95;;;14.00;99.90;;;;;;6137329;23;20177;-85
2022/09/19 14:04:52;;;;;;;2.50;1.98;;;14.00;99.90;;;;;;6168966;23;20197;-84
2022/09/19 14:06:55;;;;;;;1.92;1.80;;;14.20;99.90;;;;;;6166474;23;20213;-83
2022/09/19 14:09:43;;;;;;;2.25;1.98;;;14.30;99.90;;;;;;6140842;23;20192;-84
2022/09/19 14:12:39;;;;;;;4.32;3.20;;;14.20;99.90;;;;;;6162378;23;20165;-86
2022/09/19 14:15:28;;;;;;;2.53;2.33;;;14.20;99.90;;;;;;6138785;23;20164;-85
2022/09/19 14:18:14;;;;;;;1.60;1.50;;;14.30;99.90;;;;;;6166587;23;20177;-86
2022/09/19 14:20:54;;;;;;;3.42;2.38;;;14.60;99.90;;;;;;6163555;23;20205;-82
2022/09/19 14:23:25;;;;;;;2.40;2.20;;;14.80;99.90;;;;;;6161336;23;20173;-86
2022/09/19 14:26:00;;;;;;;2.25;2.05;;;14.60;99.90;;;;;;6163932;23;20196;-85
2022/09/19 14:29:02;;;;;;;4.30;3.67;;;14.60;99.90;;;;;;6160965;23;20182;-84
2022/09/19 14:31:51;;;;;;;3.67;3.33;;;14.70;99.90;;;;;;6137589;23;20221;-83
2022/09/19 14:34:32;;;;;;;5.28;4.88;;;14.80;99.90;;;;;;6162433;23;20173;-86
2022/09/19 14:37:22;;;;;;;2.17;1.85;;;15.10;99.90;;;;;;6164998;22;20200;-83
2022/09/19 14:40:10;;;;;;;2.33;2.10;;;14.90;99.90;;;;;;6164530;23;20219;-84
2022/09/19 14:42:56;;;;;;;2.47;2.28;;;14.70;99.90;;;;;;6163017;23;20388;-86
2022/09/19 14:45:52;;;;;;;2.85;2.35;;;14.60;99.90;;;;;;6159604;22;20209;-85
2022/09/19 14:48:34;;;;;;;2.63;2.42;;;14.50;99.90;;;;;;6157916;23;20181;-83
2022/09/19 14:51:40;;;;;;;2.05;1.80;;;14.20;99.90;;;;;;6162322;23;20363;-85
2022/09/19 14:54:17;;;;;;;2.70;1.63;;;14.10;99.90;;;;;;6137315;23;20185;-84
2022/09/19 14:57:20;;;;;;;2.17;2.08;;;14.10;99.90;;;;;;6161560;23;20177;-84
2022/09/19 14:59:54;;;;;;;2.17;1.98;;;14.00;99.90;;;;;;6143001;23;20173;-86
2022/09/19 15:02:29;;;;;;;2.33;2.13;;;14.10;99.90;;;;;;6156985;23;20174;-84
2022/09/19 15:05:14;;;;;;;3.78;2.38;;;14.10;99.90;;;;;;6158166;23;20241;-89
2022/09/19 15:07:42;;;;;;;2.05;1.95;;;14.20;99.90;;;;;;6134549;23;20166;-90
2022/09/19 15:10:33;;;;;;;3.58;2.08;;;14.00;99.90;;;;;;6132152;23;20204;-89
2022/09/19 15:13:24;;;;;;;4.97;2.28;;;14.10;99.90;;;;;;6160311;23;20349;-88
2022/09/19 15:16:12;;;;;;;3.60;2.30;;;14.10;99.90;;;;;;6151421;23;20185;-86
2022/09/19 15:18:48;;;;;;;3.05;1.80;;;14.00;99.90;;;;;;6133799;23;20552;-87
2022/09/19 15:21:27;;;;;;;2.60;2.35;;;14.10;99.90;;;;;;6163840;23;20250;-88
2022/09/19 15:24:01;;;;;;;2.10;1.88;;;14.10;99.90;;;;;;6139939;23;20200;-89
2022/09/19 15:26:35;;;;;;;2.70;2.30;;;14.30;99.90;;;;;;6163899;23;20167;-89
2022/09/19 15:29:16;;;;;;;1.90;1.80;;;14.50;99.90;;;;;;6158142;23;20198;-88
2022/09/19 15:31:45;;;;;;;2.45;2.20;;;14.30;99.90;;;;;;6162435;22;20452;-89
2022/09/19 15:34:17;;;;;;;3.10;2.90;;;14.20;99.90;;;;;;6166073;23;20248;-87
2022/09/19 15:36:45;;;;;;;2.40;1.65;;;14.10;99.90;;;;;;6147435;23;20173;-81
2022/09/19 15:39:14;;;;;;;1.70;1.50;;;14.00;99.90;;;;;;6172950;23;20173;-89
2022/09/19 15:41:42;;;;;;;1.80;1.70;;;13.90;99.90;;;;;;6161347;23;20208;-86
2022/09/19 15:44:25;;;;;;;1.80;1.70;;;13.80;99.90;;;;;;6159233;23;20209;-87
2022/09/19 15:47:02;;;;;;;3.30;2.72;;;13.80;99.90;;;;;;6130541;23;20239;-88
2022/09/19 15:49:36;;;;;;;1.65;1.55;;;13.80;99.90;;;;;;6140817;23;20358;-84
2022/09/19 15:52:11;;;;;;;3.35;2.80;;;13.80;99.90;;;;;;6147392;23;20188;-85
2022/09/19 15:54:57;;;;;;;1.60;1.50;;;13.90;99.90;;;;;;6171433;23;20222;-89
2022/09/19 15:57:31;;;;;;;2.55;1.50;;;13.90;99.90;;;;;;6159628;23;20352;-87
2022/09/19 16:00:31;;;;;;;2.13;1.42;;;14.00;99.90;;;;;;6158111;23;20181;-86